Time;durP1;ratioP1;P1;durP2;ratioP2;P2;SDS_P1;SDS_P2;PMS_P1;PMS_P2;Temp;Humidity;BMP_temperature;BMP_pressure;BME280_temperature;BME280_humidity;BME280_pressure;Samples;Min_cycle;Max_cycle;Signal;HPM_P1;HPM_P2
2019/06/23 00:00:15;;;;;;;14.6;13.2;;;;;;;;;;;;;
2019/06/23 00:02:37;;;;;;;14.5;13;;;;;;;;;;;;;
2019/06/23 00:05:02;;;;;;;15.8;14.1;;;;;;;;;;;;;
2019/06/23 00:07:27;;;;;;;14.6;13.2;;;;;;;;;;;;;
2019/06/23 00:09:52;;;;;;;15;13.5;;;;;;;;;;;;;
2019/06/23 00:12:17;;;;;;;15;13.5;;;;;;;;;;;;;
2019/06/23 00:14:42;;;;;;;15.5;13.8;;;;;;;;;;;;;
2019/06/23 00:17:07;;;;;;;14.7;13.1;;;;;;;;;;;;;
2019/06/23 00:19:32;;;;;;;14;12.5;;;;;;;;;;;;;
2019/06/23 00:21:58;;;;;;;16;13.5;;;;;;;;;;;;;
2019/06/23 00:24:23;;;;;;;13.9;12.6;;;;;;;;;;;;;
2019/06/23 00:26:48;;;;;;;14.3;12.9;;;;;;;;;;;;;
2019/06/23 00:29:13;;;;;;;14.1;12.7;;;;;;;;;;;;;
2019/06/23 00:31:47;;;;;;;14.7;13.2;;;;;;;;;;;;;
2019/06/23 00:34:03;;;;;;;14.4;13;;;;;;;;;;;;;
2019/06/23 00:36:28;;;;;;;14.5;13;;;;;;;;;;;;;
2019/06/23 00:38:53;;;;;;;16.3;13.8;;;;;;;;;;;;;
2019/06/23 00:41:18;;;;;;;15.6;14;;;;;;;;;;;;;
2019/06/23 00:43:52;;;;;;;15.9;14.4;;;;;;;;;;;;;
2019/06/23 00:46:17;;;;;;;15.7;14.1;;;;;;;;;;;;;
2019/06/23 00:48:42;;;;;;;19;17;;;;;;;;;;;;;
2019/06/23 00:51:07;;;;;;;19;17;;;;;;;;;;;;;
2019/06/23 00:53:33;;;;;;;21.6;17.5;;;;;;;;;;;;;
2019/06/23 00:55:58;;;;;;;21.9;18.4;;;;;;;;;;;;;
2019/06/23 00:58:23;;;;;;;20.3;17.8;;;;;;;;;;;;;
2019/06/23 01:00:53;;;;;;;21.5;18.5;;;;;;;;;;;;;
2019/06/23 01:03:14;;;;;;;23.6;18.9;;;;;;;;;;;;;
2019/06/23 01:05:39;;;;;;;22.4;19.6;;;;;;;;;;;;;
2019/06/23 01:08:04;;;;;;;23.8;20.4;;;;;;;;;;;;;
2019/06/23 01:10:29;;;;;;;27.3;21.4;;;;;;;;;;;;;
2019/06/23 01:12:54;;;;;;;24.6;21;;;;;;;;;;;;;
2019/06/23 01:15:19;;;;;;;21.7;17.7;;;;;;;;;;;;;
2019/06/23 01:17:44;;;;;;;20.6;17;;;;;;;;;;;;;
2019/06/23 01:20:09;;;;;;;21.1;17.9;;;;;;;;;;;;;
2019/06/23 01:22:34;;;;;;;19.8;17.4;;;;;;;;;;;;;
2019/06/23 01:25:00;;;;;;;20.5;17.9;;;;;;;;;;;;;
2019/06/23 01:27:25;;;;;;;20.6;18;;;;;;;;;;;;;
2019/06/23 01:29:50;;;;;;;21.5;17.4;;;;;;;;;;;;;
2019/06/23 01:32:19;;;;;;;21.2;17;;;;;;;;;;;;;
2019/06/23 01:34:45;;;;;;;21.7;17.7;;;;;;;;;;;;;
2019/06/23 01:37:11;;;;;;;24.1;18.8;;;;;;;;;;;;;
2019/06/23 01:39:37;;;;;;;25;18.7;;;;;;;;;;;;;
2019/06/23 01:42:02;;;;;;;27.4;20.8;;;;;;;;;;;;;
2019/06/23 01:44:27;;;;;;;32;22.4;;;;;;;;;;;;;
2019/06/23 01:46:52;;;;;;;32.7;22.8;;;;;;;;;;;;;
2019/06/23 01:49:17;;;;;;;29.5;21.8;;;;;;;;;;;;;
2019/06/23 01:51:42;;;;;;;36.5;23.8;;;;;;;;;;;;;
2019/06/23 01:54:07;;;;;;;42.4;26.2;;;;;;;;;;;;;
2019/06/23 01:56:32;;;;;;;42.5;26.3;;;;;;;;;;;;;
2019/06/23 01:58:58;;;;;;;43;26.1;;;;;;;;;;;;;
2019/06/23 02:01:23;;;;;;;38.3;25.3;;;;;;;;;;;;;
2019/06/23 02:03:48;;;;;;;41.5;26.2;;;;;;;;;;;;;
2019/06/23 02:06:13;;;;;;;45.8;26.2;;;;;;;;;;;;;
2019/06/23 02:08:38;;;;;;;48.4;27.6;;;;;;;;;;;;;
2019/06/23 02:11:05;;;;;;;51.2;28.8;;;;;;;;;;;;;
2019/06/23 02:13:30;;;;;;;45.5;27;;;;;;;;;;;;;
2019/06/23 02:15:59;;;;;;;51.2;28.5;;;;;;;;;;;;;
2019/06/23 02:18:24;;;;;;;50.1;28.1;;;;;;;;;;;;;
2019/06/23 02:20:52;;;;;;;46.4;27;;;;;;;;;;;;;
2019/06/23 02:23:20;;;;;;;49;27;;;;;;;;;;;;;
2019/06/23 02:25:43;;;;;;;42.2;26;;;;;;;;;;;;;
2019/06/23 02:28:08;;;;;;;48.5;26.6;;;;;;;;;;;;;
2019/06/23 02:30:33;;;;;;;45.9;26.7;;;;;;;;;;;;;
2019/06/23 02:32:58;;;;;;;44.8;26.3;;;;;;;;;;;;;
2019/06/23 02:35:23;;;;;;;48.3;26.9;;;;;;;;;;;;;
2019/06/23 02:37:48;;;;;;;38;24.5;;;;;;;;;;;;;
2019/06/23 02:40:16;;;;;;;38.8;24.1;;;;;;;;;;;;;
2019/06/23 02:42:41;;;;;;;38.7;24.7;;;;;;;;;;;;;
2019/06/23 02:45:06;;;;;;;40.8;24.3;;;;;;;;;;;;;
2019/06/23 02:47:42;;;;;;;43.3;25.1;;;;;;;;;;;;;
2019/06/23 02:50:43;;;;;;;40.5;24.2;;;;;;;;;;;;;
2019/06/23 02:52:26;;;;;;;41.3;25;;;;;;;;;;;;;
2019/06/23 02:54:52;;;;;;;35.7;23.1;;;;;;;;;;;;;
2019/06/23 02:57:18;;;;;;;38.1;24.1;;;;;;;;;;;;;
2019/06/23 02:59:37;;;;;;;34.6;22.5;;;;;;;;;;;;;
2019/06/23 03:02:02;;;;;;;35.1;22.9;;;;;;;;;;;;;
2019/06/23 03:04:27;;;;;;;34.8;23.1;;;;;;;;;;;;;
2019/06/23 03:06:53;;;;;;;34.4;21.5;;;;;;;;;;;;;
2019/06/23 03:09:18;;;;;;;33.4;21.8;;;;;;;;;;;;;
2019/06/23 03:11:43;;;;;;;34.4;22.6;;;;;;;;;;;;;
2019/06/23 03:14:08;;;;;;;32.3;21.2;;;;;;;;;;;;;
2019/06/23 03:16:36;;;;;;;35.2;22.2;;;;;;;;;;;;;
2019/06/23 03:19:01;;;;;;;34.3;21.7;;;;;;;;;;;;;
2019/06/23 03:21:26;;;;;;;30.5;21;;;;;;;;;;;;;
2019/06/23 03:23:51;;;;;;;31.1;21.6;;;;;;;;;;;;;
2019/06/23 03:26:17;;;;;;;32.8;21.3;;;;;;;;;;;;;
2019/06/23 03:28:42;;;;;;;31.8;21.2;;;;;;;;;;;;;
2019/06/23 03:31:07;;;;;;;30.6;21.1;;;;;;;;;;;;;
2019/06/23 03:33:32;;;;;;;33.3;21.8;;;;;;;;;;;;;
2019/06/23 03:35:57;;;;;;;32;21.3;;;;;;;;;;;;;
2019/06/23 03:38:22;;;;;;;31.9;20.9;;;;;;;;;;;;;
2019/06/23 03:40:47;;;;;;;32;21.8;;;;;;;;;;;;;
2019/06/23 03:43:13;;;;;;;30.4;20.9;;;;;;;;;;;;;
2019/06/23 03:45:38;;;;;;;30.3;20.9;;;;;;;;;;;;;
2019/06/23 03:48:03;;;;;;;30;20.6;;;;;;;;;;;;;
2019/06/23 03:50:28;;;;;;;29.7;20.7;;;;;;;;;;;;;
2019/06/23 03:52:53;;;;;;;30.6;21.2;;;;;;;;;;;;;
2019/06/23 03:55:19;;;;;;;30;21.1;;;;;;;;;;;;;
2019/06/23 03:57:44;;;;;;;28.1;21.1;;;;;;;;;;;;;
2019/06/23 04:02:27;;;;;;;26.9;19.9;;;;;;;16.8;91.04004;1003.824;;;;
2019/06/23 04:04:53;;;;;;;27.6;19.8;;;;;;;16.87;90.19434;1003.817;;;;
2019/06/23 04:07:18;;;;;;;27.6;19.7;;;;;;;16.95;90.17578;1003.898;;;;
2019/06/23 04:09:43;;;;;;;25.8;18.7;;;;;;;16.94;90.08105;1003.945;;;;
2019/06/23 04:12:08;;;;;;;30;21.6;;;;;;;16.76;91.42578;1003.955;;;;
2019/06/23 04:14:33;;;;;;;31.4;22.8;;;;;;;16.69;92.11914;1003.952;;;;
2019/06/23 04:16:58;;;;;;;32.3;24;;;;;;;16.75;92.44629;1003.931;;;;
2019/06/23 04:19:25;;;;;;;29.2;21.7;;;;;;;16.73;92.20996;1003.878;;;;
2019/06/23 04:21:50;;;;;;;28.9;21.9;;;;;;;16.76;92.32031;1003.875;;;;
2019/06/23 04:24:15;;;;;;;29.4;22.1;;;;;;;16.8;92.2832;1003.891;;;;
2019/06/23 04:26:41;;;;;;;30.3;23.4;;;;;;;16.93;92.03125;1003.931;;;;
2019/06/23 04:29:06;;;;;;;31.5;24;;;;;;;16.94;92.05566;1003.928;;;;
2019/06/23 04:31:31;;;;;;;27.8;22.2;;;;;;;17.14;91.47168;1003.929;;;;
2019/06/23 04:33:56;;;;;;;31.5;23.7;;;;;;;17.39;90.85742;1003.943;;;;
2019/06/23 04:36:21;;;;;;;28.7;23.1;;;;;;;17.4;90.89648;1003.936;;;;
2019/06/23 04:38:46;;;;;;;30.5;24.1;;;;;;;17.59;89.7373;1003.939;;;;
2019/06/23 04:41:11;;;;;;;28.1;21.9;;;;;;;17.89;89.35742;1003.98;;;;
2019/06/23 04:43:36;;;;;;;29;21.7;;;;;;;17.75;89.43066;1004.004;;;;
2019/06/23 04:46:02;;;;;;;27.5;22.2;;;;;;;18.02;88.70703;1004.023;;;;
2019/06/23 04:48:27;;;;;;;31.1;23.2;;;;;;;17.84;89.25293;1004.1;;;;
2019/06/23 04:50:52;;;;;;;27.1;21.8;;;;;;;17.73;89.85938;1004.065;;;;
2019/06/23 04:53:17;;;;;;;34;25.6;;;;;;;17.75;89.4209;1004.104;;;;
2019/06/23 04:55:42;;;;;;;32.3;24.9;;;;;;;17.71;89.61133;1004.077;;;;
2019/06/23 04:58:07;;;;;;;30.5;23.5;;;;;;;17.85;88.98926;1004.077;;;;
2019/06/23 05:00:32;;;;;;;32.2;24.8;;;;;;;17.96;88.48535;1004.077;;;;
2019/06/23 05:03:00;;;;;;;37.1;27.5;;;;;;;17.84;89.10156;1004.148;;;;
2019/06/23 05:05:25;;;;;;;47.2;32.8;;;;;;;17.74;89.82617;1004.124;;;;
2019/06/23 05:07:50;;;;;;;43.5;29.4;;;;;;;17.78;90.125;1004.106;;;;
2019/06/23 05:10:18;;;;;;;44.3;29.4;;;;;;;17.99;89.75;1004.136;;;;
2019/06/23 05:12:58;;;;;;;45.3;31.2;;;;;;;18.1;88.80371;1004.162;;;;
2019/06/23 05:15:25;;;;;;;44.6;30.4;;;;;;;18.19;88.68164;1004.107;;;;
2019/06/23 05:17:50;;;;;;;40.6;28.8;;;;;;;18.39;87.97754;1004.153;;;;
2019/06/23 05:20:16;;;;;;;40.1;29.1;;;;;;;18.56;87.3584;1004.181;;;;
2019/06/23 05:22:41;;;;;;;40.3;29.3;;;;;;;18.55;87.15918;1004.198;;;;
2019/06/23 05:25:12;;;;;;;40.4;29;;;;;;;18.72;86.19922;1004.232;;;;
2019/06/23 05:27:39;;;;;;;41.8;29.5;;;;;;;18.53;86.67676;1004.289;;;;
2019/06/23 05:30:04;;;;;;;40;28.7;;;;;;;18.5;87.56738;1004.227;;;;
2019/06/23 05:32:29;;;;;;;37.8;28.2;;;;;;;18.59;86.97949;1004.246;;;;
2019/06/23 05:34:54;;;;;;;41.9;27.7;;;;;;;18.62;86.4834;1004.225;;;;
2019/06/23 05:37:21;;;;;;;41.4;28.9;;;;;;;18.56;87.5332;1004.295;;;;
2019/06/23 05:39:54;;;;;;;41.2;29.4;;;;;;;18.63;86.80176;1004.298;;;;
2019/06/23 05:42:19;;;;;;;42.6;30;;;;;;;18.29;88.77344;1004.312;;;;
2019/06/23 05:44:44;;;;;;;42.4;30.3;;;;;;;18.39;88.69824;1004.267;;;;
2019/06/23 05:47:09;;;;;;;41.7;30.3;;;;;;;18.42;88.54199;1004.297;;;;
2019/06/23 05:49:34;;;;;;;38.6;29;;;;;;;18.57;87.63086;1004.284;;;;
2019/06/23 05:51:59;;;;;;;37.9;28.9;;;;;;;;;;;;;
2019/06/23 05:54:25;;;;;;;38.6;27.5;;;;;;;;;;;;;
2019/06/23 05:56:50;;;;;;;30.1;24.2;;;;;;;;;;;;;
2019/06/23 05:59:15;;;;;;;31.2;24.1;;;;;;;;;;;;;
2019/06/23 06:01:40;;;;;;;30.4;22.8;;;;;;;;;;;;;
2019/06/23 06:04:05;;;;;;;26.7;21.6;;;;;;;;;;;;;
2019/06/23 06:06:30;;;;;;;27.3;22.1;;;;;;;;;;;;;
2019/06/23 06:08:55;;;;;;;27.2;22.3;;;;;;;;;;;;;
2019/06/23 06:11:20;;;;;;;26.3;21.9;;;;;;;;;;;;;
2019/06/23 06:13:45;;;;;;;26.7;22.3;;;;;;;;;;;;;
2019/06/23 06:16:11;;;;;;;28.4;22.6;;;;;;;;;;;;;
2019/06/23 06:18:36;;;;;;;28.7;22.6;;;;;;;;;;;;;
2019/06/23 06:21:01;;;;;;;26.1;21.6;;;;;;;;;;;;;
2019/06/23 06:23:26;;;;;;;26.6;22.2;;;;;;;;;;;;;
2019/06/23 06:25:51;;;;;;;23.3;19.9;;;;;;;;;;;;;
2019/06/23 06:28:16;;;;;;;23.9;19.9;;;;;;;;;;;;;
2019/06/23 06:30:41;;;;;;;22.2;19.3;;;;;;;;;;;;;
2019/06/23 06:33:06;;;;;;;22.7;18.7;;;;;;;;;;;;;
2019/06/23 06:35:31;;;;;;;22;19.6;;;;;;;;;;;;;
2019/06/23 06:37:56;;;;;;;21.7;18.8;;;;;;;;;;;;;
2019/06/23 06:40:22;;;;;;;21.8;19.4;;;;;;;;;;;;;
2019/06/23 06:42:47;;;;;;;21.7;18.4;;;;;;;;;;;;;
2019/06/23 06:45:12;;;;;;;18.5;16.4;;;;;;;;;;;;;
2019/06/23 06:47:37;;;;;;;19.3;16.7;;;;;;;;;;;;;
2019/06/23 06:50:02;;;;;;;20.1;15.8;;;;;;;;;;;;;
2019/06/23 06:52:28;;;;;;;17.7;15.4;;;;;;;;;;;;;
2019/06/23 06:54:56;;;;;;;16.9;15.2;;;;;;;;;;;;;
2019/06/23 06:57:23;;;;;;;17.9;16.1;;;;;;;;;;;;;
2019/06/23 06:59:48;;;;;;;19.6;16.1;;;;;;;;;;;;;
2019/06/23 07:02:13;;;;;;;18.6;16.5;;;;;;;;;;;;;
2019/06/23 07:04:38;;;;;;;14.8;13.2;;;;;;;;;;;;;
2019/06/23 07:07:04;;;;;;;16.1;14.4;;;;;;;;;;;;;
2019/06/23 07:09:29;;;;;;;13.8;12.4;;;;;;;;;;;;;
2019/06/23 07:11:54;;;;;;;13.7;12.3;;;;;;;;;;;;;
2019/06/23 07:14:19;;;;;;;13.7;12.3;;;;;;;;;;;;;
2019/06/23 07:16:50;;;;;;;14.3;12.3;;;;;;;;;;;;;
2019/06/23 07:19:23;;;;;;;14.2;10.7;;;;;;;;;;;;;
2019/06/23 07:21:49;;;;;;;13.6;12.2;;;;;;;;;;;;;
2019/06/23 07:24:16;;;;;;;14.4;12.9;;;;;;;;;;;;;
2019/06/23 07:26:39;;;;;;;13.3;11.9;;;;;;;;;;;;;
2019/06/23 07:29:09;;;;;;;13.1;11.7;;;;;;;;;;;;;
2019/06/23 07:31:34;;;;;;;11.5;10.3;;;;;;;;;;;;;
2019/06/23 07:33:59;;;;;;;10.9;9.7;;;;;;;;;;;;;
2019/06/23 07:36:24;;;;;;;9.8;8.9;;;;;;;;;;;;;
2019/06/23 07:38:49;;;;;;;8.8;7.9;;;;;;;;;;;;;
2019/06/23 07:41:15;;;;;;;8.6;7.2;;;;;;;;;;;;;
2019/06/23 07:43:40;;;;;;;8.4;7.6;;;;;;;;;;;;;
2019/06/23 07:46:05;;;;;;;9.5;8.6;;;;;;;;;;;;;
2019/06/23 07:48:35;;;;;;;8.3;7.5;;;;;;;;;;;;;
2019/06/23 07:51:00;;;;;;;7.6;6.7;;;;;;;;;;;;;
2019/06/23 07:53:25;;;;;;;7.1;6.4;;;;;;;;;;;;;
2019/06/23 07:55:52;;;;;;;8;7.2;;;;;;;;;;;;;
2019/06/23 07:58:24;;;;;;;8.2;7.4;;;;;;;;;;;;;
2019/06/23 08:00:51;;;;;;;7.9;7.2;;;;;;;;;;;;;
2019/06/23 08:03:16;;;;;;;7.5;6.8;;;;;;;;;;;;;
2019/06/23 08:05:41;;;;;;;7.5;6.7;;;;;;;;;;;;;
2019/06/23 08:08:06;;;;;;;7.5;6.6;;;;;;;;;;;;;
2019/06/23 08:10:31;;;;;;;7.5;6.4;;;;;;;;;;;;;
2019/06/23 08:12:56;;;;;;;7.8;7.1;;;;;;;;;;;;;
2019/06/23 08:15:21;;;;;;;8.6;6.6;;;;;;;;;;;;;
2019/06/23 08:17:46;;;;;;;7.3;6.6;;;;;;;;;;;;;
2019/06/23 08:20:11;;;;;;;8;7.2;;;;;;;;;;;;;
2019/06/23 08:22:37;;;;;;;8.5;7.6;;;;;;;;;;;;;
2019/06/23 08:25:07;;;;;;;8.1;6.8;;;;;;;;;;;;;
2019/06/23 08:27:32;;;;;;;9;7.9;;;;;;;;;;;;;
2019/06/23 08:29:57;;;;;;;7.1;6.4;;;;;;;;;;;;;
2019/06/23 08:32:22;;;;;;;8.1;7.3;;;;;;;;;;;;;
2019/06/23 08:34:47;;;;;;;7.6;6.9;;;;;;;;;;;;;
2019/06/23 08:37:12;;;;;;;8.1;7.1;;;;;;;;;;;;;
2019/06/23 08:39:38;;;;;;;5.7;5.2;;;;;;;;;;;;;
2019/06/23 08:42:03;;;;;;;7.3;6.6;;;;;;;;;;;;;
2019/06/23 08:44:28;;;;;;;8.6;7.3;;;;;;;;;;;;;
2019/06/23 08:46:53;;;;;;;7.4;6.2;;;;;;;;;;;;;
2019/06/23 08:49:18;;;;;;;6.2;5.6;;;;;;;;;;;;;
2019/06/23 08:51:43;;;;;;;5.4;4.9;;;;;;;;;;;;;
2019/06/23 08:54:08;;;;;;;5.9;4.9;;;;;;;;;;;;;
2019/06/23 08:56:33;;;;;;;7.2;5.6;;;;;;;;;;;;;
2019/06/23 08:58:58;;;;;;;6.3;5.7;;;;;;;;;;;;;
2019/06/23 09:01:25;;;;;;;6.4;5.8;;;;;;;;;;;;;
2019/06/23 09:03:50;;;;;;;6.2;5.6;;;;;;;;;;;;;
2019/06/23 09:06:16;;;;;;;6.1;5.6;;;;;;;;;;;;;
2019/06/23 09:08:41;;;;;;;6.4;5.4;;;;;;;;;;;;;
2019/06/23 09:11:07;;;;;;;5.2;4.7;;;;;;;;;;;;;
2019/06/23 09:13:32;;;;;;;5.1;4.6;;;;;;;;;;;;;
2019/06/23 09:15:58;;;;;;;5;4.5;;;;;;;;;;;;;
2019/06/23 09:18:23;;;;;;;5.7;4.9;;;;;;;;;;;;;
2019/06/23 09:20:48;;;;;;;5.6;5.1;;;;;;;;;;;;;
2019/06/23 09:23:13;;;;;;;5.1;4.7;;;;;;;;;;;;;
2019/06/23 09:25:38;;;;;;;4.6;4.2;;;;;;;;;;;;;
2019/06/23 09:28:03;;;;;;;5;4.4;;;;;;;;;;;;;
2019/06/23 09:30:29;;;;;;;5.1;4.6;;;;;;;;;;;;;
2019/06/23 09:32:54;;;;;;;5.4;3.7;;;;;;;;;;;;;
2019/06/23 09:35:19;;;;;;;4.2;3.6;;;;;;;;;;;;;
2019/06/23 09:37:44;;;;;;;4.1;3.7;;;;;;;;;;;;;
2019/06/23 09:40:09;;;;;;;4.1;3.7;;;;;;;;;;;;;
2019/06/23 09:42:34;;;;;;;5.8;3.7;;;;;;;;;;;;;
2019/06/23 09:44:59;;;;;;;4;3.7;;;;;;;;;;;;;
2019/06/23 09:47:24;;;;;;;4.2;3.9;;;;;;;;;;;;;
2019/06/23 09:49:49;;;;;;;4.3;3.9;;;;;;;;;;;;;
2019/06/23 09:52:15;;;;;;;4.2;3.8;;;;;;;;;;;;;
2019/06/23 09:54:40;;;;;;;4.2;3.7;;;;;;;;;;;;;
2019/06/23 09:57:05;;;;;;;4.7;3.7;;;;;;;;;;;;;
2019/06/23 09:59:30;;;;;;;3.7;3.4;;;;;;;;;;;;;
2019/06/23 10:02:03;;;;;;;4;3.7;;;;;;;;;;;;;
2019/06/23 10:04:37;;;;;;;4.9;4;;;;;;;;;;;;;
2019/06/23 10:07:02;;;;;;;4.2;3.8;;;;;;;;;;;;;
2019/06/23 10:09:28;;;;;;;4.7;3.6;;;;;;;;;;;;;
2019/06/23 10:12:00;;;;;;;5.4;4.2;;;;;;;;;;;;;
2019/06/23 10:14:33;;;;;;;5.2;4;;;;;;;;;;;;;
2019/06/23 10:16:58;;;;;;;4.2;3.9;;;;;;;;;;;;;
2019/06/23 10:19:29;;;;;;;4.5;3.7;;;;;;;;;;;;;
2019/06/23 10:21:59;;;;;;;4.3;3.9;;;;;;;;;;;;;
2019/06/23 10:24:27;;;;;;;5.4;4.2;;;;;;;;;;;;;
2019/06/23 10:26:53;;;;;;;4.3;3.8;;;;;;;;;;;;;
2019/06/23 10:29:23;;;;;;;4.5;3.8;;;;;;;;;;;;;
2019/06/23 10:31:55;;;;;;;4.1;3.5;;;;;;;;;;;;;
2019/06/23 10:34:21;;;;;;;4.5;4.1;;;;;;;;;;;;;
2019/06/23 10:36:46;;;;;;;4.7;4.3;;;;;;;;;;;;;
2019/06/23 10:39:16;;;;;;;5.2;4.7;;;;;;;;;;;;;
2019/06/23 10:41:42;;;;;;;4.6;4.2;;;;;;;;;;;;;
2019/06/23 10:44:07;;;;;;;5.5;4.9;;;;;;;;;;;;;
2019/06/23 10:46:32;;;;;;;5;4.5;;;;;;;;;;;;;
2019/06/23 10:49:00;;;;;;;4.7;4.3;;;;;;;;;;;;;
2019/06/23 10:51:25;;;;;;;5.4;4.9;;;;;;;;;;;;;
2019/06/23 10:53:51;;;;;;;5.2;4.7;;;;;;;;;;;;;
2019/06/23 10:56:16;;;;;;;5;4.5;;;;;;;;;;;;;
2019/06/23 10:58:43;;;;;;;4.8;4.4;;;;;;;;;;;;;
2019/06/23 11:01:08;;;;;;;6;4.8;;;;;;;;;;;;;
2019/06/23 11:03:34;;;;;;;5.6;4.9;;;;;;;;;;;;;
2019/06/23 11:05:59;;;;;;;5.1;4.6;;;;;;;;;;;;;
2019/06/23 11:08:24;;;;;;;5.4;4.9;;;;;;;;;;;;;
2019/06/23 11:10:49;;;;;;;5.5;5;;;;;;;;;;;;;
2019/06/23 11:13:14;;;;;;;5.9;5.4;;;;;;;;;;;;;
2019/06/23 11:15:40;;;;;;;5.2;4.7;;;;;;;;;;;;;
2019/06/23 11:18:05;;;;;;;5.2;4.7;;;;;;;;;;;;;
2019/06/23 11:20:30;;;;;;;6.7;4.8;;;;;;;;;;;;;
2019/06/23 11:22:55;;;;;;;5.1;4.6;;;;;;;;;;;;;
2019/06/23 11:25:20;;;;;;;5.2;4.7;;;;;;;;;;;;;
2019/06/23 11:27:46;;;;;;;5.2;4.8;;;;;;;;;;;;;
2019/06/23 11:30:11;;;;;;;5;4.6;;;;;;;;;;;;;
2019/06/23 11:32:36;;;;;;;5.1;4.6;;;;;;;;;;;;;
2019/06/23 11:35:01;;;;;;;5;4.5;;;;;;;;;;;;;
2019/06/23 11:37:26;;;;;;;5.3;4.6;;;;;;;;;;;;;
2019/06/23 11:39:56;;;;;;;5.1;4.6;;;;;;;;;;;;;
2019/06/23 11:42:21;;;;;;;7.2;5;;;;;;;;;;;;;
2019/06/23 11:44:46;;;;;;;6.6;4.7;;;;;;;;;;;;;
2019/06/23 11:47:11;;;;;;;5.7;5.1;;;;;;;;;;;;;
2019/06/23 11:49:40;;;;;;;5.5;5;;;;;;;;;;;;;
2019/06/23 11:52:05;;;;;;;5.9;5.1;;;;;;;;;;;;;
2019/06/23 11:54:39;;;;;;;5.8;5.2;;;;;;;;;;;;;
2019/06/23 11:57:05;;;;;;;6;5.4;;;;;;;;;;;;;
2019/06/23 11:59:40;;;;;;;5.8;5.2;;;;;;;;;;;;;
2019/06/23 12:02:12;;;;;;;5.7;5.2;;;;;;;;;;;;;
2019/06/23 12:04:37;;;;;;;5.8;5.3;;;;;;;;;;;;;
2019/06/23 12:07:02;;;;;;;5.4;4.9;;;;;;;;;;;;;
2019/06/23 12:09:27;;;;;;;5.1;4.6;;;;;;;;;;;;;
2019/06/23 12:11:53;;;;;;;4.9;4.5;;;;;;;;;;;;;
2019/06/23 12:14:18;;;;;;;5.1;4.6;;;;;;;;;;;;;
2019/06/23 12:16:43;;;;;;;5.5;5;;;;;;;;;;;;;
2019/06/23 12:19:08;;;;;;;8.2;5.3;;;;;;;;;;;;;
2019/06/23 12:21:33;;;;;;;5.7;5.2;;;;;;;;;;;;;
2019/06/23 12:24:00;;;;;;;6.1;5.5;;;;;;;;;;;;;
2019/06/23 12:26:27;;;;;;;5.7;5.2;;;;;;;;;;;;;
2019/06/23 12:28:52;;;;;;;6.2;5.6;;;;;;;;;;;;;
2019/06/23 12:31:17;;;;;;;6;5.4;;;;;;;;;;;;;
2019/06/23 12:33:43;;;;;;;6.1;5.5;;;;;;;;;;;;;
2019/06/23 12:36:08;;;;;;;6.3;5.7;;;;;;;;;;;;;
2019/06/23 12:38:33;;;;;;;6.3;5.7;;;;;;;;;;;;;
2019/06/23 12:40:58;;;;;;;6.1;5.5;;;;;;;;;;;;;
2019/06/23 12:43:23;;;;;;;5.6;5.1;;;;;;;;;;;;;
2019/06/23 12:45:48;;;;;;;5.8;5.3;;;;;;;;;;;;;
2019/06/23 12:48:16;;;;;;;5.9;5.2;;;;;;;;;;;;;
2019/06/23 12:50:41;;;;;;;5.7;5.1;;;;;;;;;;;;;
2019/06/23 12:53:06;;;;;;;5.6;5.1;;;;;;;;;;;;;
2019/06/23 12:55:35;;;;;;;5.7;5.1;;;;;;;;;;;;;
2019/06/23 12:58:00;;;;;;;5.5;5.1;;;;;;;;;;;;;
2019/06/23 13:00:28;;;;;;;5.5;5;;;;;;;;;;;;;
2019/06/23 13:02:53;;;;;;;6.9;4.8;;;;;;;;;;;;;
2019/06/23 13:05:22;;;;;;;5.7;5.2;;;;;;;;;;;;;
2019/06/23 13:07:47;;;;;;;5.5;5;;;;;;;;;;;;;
2019/06/23 13:10:20;;;;;;;5;4.6;;;;;;;;;;;;;
2019/06/23 13:12:45;;;;;;;5.2;4.7;;;;;;;;;;;;;
2019/06/23 13:15:10;;;;;;;5.2;4.7;;;;;;;;;;;;;
2019/06/23 13:17:36;;;;;;;5.5;4.9;;;;;;;;;;;;;
2019/06/23 13:20:01;;;;;;;5.1;4.7;;;;;;;;;;;;;
2019/06/23 13:22:26;;;;;;;5;4.5;;;;;;;;;;;;;
2019/06/23 13:24:53;;;;;;;6.3;4.5;;;;;;;;;;;;;
2019/06/23 13:27:18;;;;;;;4.4;4;;;;;;;;;;;;;
2019/06/23 13:29:43;;;;;;;4.9;4.4;;;;;;;;;;;;;
2019/06/23 13:32:08;;;;;;;5.4;4.7;;;;;;;;;;;;;
2019/06/23 13:34:34;;;;;;;4.7;4.3;;;;;;;;;;;;;
2019/06/23 13:37:00;;;;;;;5.1;4.7;;;;;;;;;;;;;
2019/06/23 13:39:30;;;;;;;4.8;4.4;;;;;;;;;;;;;
2019/06/23 13:41:57;;;;;;;4.9;4.5;;;;;;;;;;;;;
2019/06/23 13:44:22;;;;;;;5.5;4.6;;;;;;;;;;;;;
2019/06/23 13:46:48;;;;;;;4.7;4.3;;;;;;;;;;;;;
2019/06/23 13:49:13;;;;;;;4.7;4.4;;;;;;;;;;;;;
2019/06/23 13:51:38;;;;;;;4.8;4.3;;;;;;;;;;;;;
2019/06/23 13:54:04;;;;;;;4.8;4.4;;;;;;;;;;;;;
2019/06/23 13:56:29;;;;;;;5.4;4.5;;;;;;;;;;;;;
2019/06/23 13:58:54;;;;;;;5.4;4.9;;;;;;;;;;;;;
2019/06/23 14:01:19;;;;;;;5.6;4.9;;;;;;;;;;;;;
2019/06/23 14:03:44;;;;;;;6.8;4.6;;;;;;;;;;;;;
2019/06/23 14:06:09;;;;;;;6.2;4.8;;;;;;;;;;;;;
2019/06/23 14:08:35;;;;;;;4.6;4.2;;;;;;;;;;;;;
2019/06/23 14:11:00;;;;;;;5;4.6;;;;;;;;;;;;;
2019/06/23 14:13:25;;;;;;;5.1;4.6;;;;;;;;;;;;;
2019/06/23 14:15:50;;;;;;;4.7;4.3;;;;;;;;;;;;;
2019/06/23 14:18:15;;;;;;;5.5;4.9;;;;;;;;;;;;;
2019/06/23 14:20:41;;;;;;;7;4.9;;;;;;;;;;;;;
2019/06/23 14:23:05;;;;;;;4.7;4.3;;;;;;;;;;;;;
2019/06/23 14:25:31;;;;;;;5.2;4.7;;;;;;;;;;;;;
2019/06/23 14:27:56;;;;;;;6.5;4.8;;;;;;;;;;;;;
2019/06/23 14:30:21;;;;;;;5.3;4.8;;;;;;;;;;;;;
2019/06/23 14:32:49;;;;;;;5.5;5;;;;;;;;;;;;;
2019/06/23 14:35:19;;;;;;;5.4;4.9;;;;;;;;;;;;;
2019/06/23 14:37:45;;;;;;;5.6;4.9;;;;;;;;;;;;;
2019/06/23 14:40:13;;;;;;;6.4;4.6;;;;;;;;;;;;;
2019/06/23 14:42:39;;;;;;;4.8;4.4;;;;;;;;;;;;;
2019/06/23 14:45:04;;;;;;;7.5;4.4;;;;;;;;;;;;;
2019/06/23 14:47:29;;;;;;;4.4;4;;;;;;;;;;;;;
2019/06/23 14:49:54;;;;;;;4.6;4.2;;;;;;;;;;;;;
2019/06/23 14:52:19;;;;;;;4.6;4.2;;;;;;;;;;;;;
2019/06/23 14:54:44;;;;;;;4.8;4.2;;;;;;;;;;;;;
2019/06/23 14:57:10;;;;;;;4.4;4;;;;;;;;;;;;;
2019/06/23 14:59:35;;;;;;;4.5;4.1;;;;;;;;;;;;;
2019/06/23 15:02:00;;;;;;;4.2;3.8;;;;;;;;;;;;;
2019/06/23 15:04:31;;;;;;;4.5;4.1;;;;;;;;;;;;;
2019/06/23 15:06:57;;;;;;;4.2;3.9;;;;;;;;;;;;;
2019/06/23 15:09:22;;;;;;;4.6;4.2;;;;;;;;;;;;;
2019/06/23 15:11:48;;;;;;;6;4.6;;;;;;;;;;;;;
2019/06/23 15:14:13;;;;;;;7.9;4.1;;;;;;;;;;;;;
2019/06/23 15:16:38;;;;;;;4.4;4.1;;;;;;;;;;;;;
2019/06/23 15:19:11;;;;;;;4.1;3.7;;;;;;;;;;;;;
2019/06/23 15:21:44;;;;;;;3.9;3.6;;;;;;;;;;;;;
2019/06/23 15:24:10;;;;;;;4.5;4;;;;;;;;;;;;;
2019/06/23 15:26:35;;;;;;;4.4;4;;;;;;;;;;;;;
2019/06/23 15:29:01;;;;;;;4.4;4;;;;;;;;;;;;;
2019/06/23 15:31:26;;;;;;;4.4;4;;;;;;;;;;;;;
2019/06/23 15:33:51;;;;;;;4.2;3.8;;;;;;;;;;;;;
2019/06/23 15:36:16;;;;;;;4.5;4.1;;;;;;;;;;;;;
2019/06/23 15:38:41;;;;;;;4.6;4.2;;;;;;;;;;;;;
2019/06/23 15:41:07;;;;;;;5.2;4.1;;;;;;;;;;;;;
2019/06/23 15:43:32;;;;;;;4.9;4.4;;;;;;;;;;;;;
2019/06/23 15:45:57;;;;;;;5.2;4.7;;;;;;;;;;;;;
2019/06/23 15:48:22;;;;;;;4.6;4.1;;;;;;;;;;;;;
2019/06/23 15:50:48;;;;;;;4.3;3.9;;;;;;;;;;;;;
2019/06/23 15:53:13;;;;;;;5;4;;;;;;;;;;;;;
2019/06/23 15:55:38;;;;;;;4.9;4.2;;;;;;;;;;;;;
2019/06/23 15:58:03;;;;;;;4.5;4.1;;;;;;;;;;;;;
2019/06/23 16:00:28;;;;;;;4.7;4.3;;;;;;;;;;;;;
2019/06/23 16:02:53;;;;;;;4.9;4.2;;;;;;;;;;;;;
2019/06/23 16:05:20;;;;;;;4.6;4;;;;;;;;;;;;;
2019/06/23 16:07:44;;;;;;;4.8;4.4;;;;;;;;;;;;;
2019/06/23 16:10:09;;;;;;;4.6;4.2;;;;;;;;;;;;;
2019/06/23 16:12:38;;;;;;;4.9;4.4;;;;;;;;;;;;;
2019/06/23 16:15:12;;;;;;;4.7;4.3;;;;;;;;;;;;;
2019/06/23 16:17:46;;;;;;;5;4.3;;;;;;;;;;;;;
2019/06/23 16:20:19;;;;;;;5.1;4.6;;;;;;;;;;;;;
2019/06/23 16:22:44;;;;;;;4.9;4.2;;;;;;;;;;;;;
2019/06/23 16:25:09;;;;;;;5.2;4.7;;;;;;;;;;;;;
2019/06/23 16:27:34;;;;;;;4.8;4.3;;;;;;;;;;;;;
2019/06/23 16:29:59;;;;;;;5.3;4.5;;;;;;;;;;;;;
2019/06/23 16:32:25;;;;;;;5;4.5;;;;;;;;;;;;;
2019/06/23 16:34:49;;;;;;;4.5;4.1;;;;;;;;;;;;;
2019/06/23 16:37:15;;;;;;;4.9;4.4;;;;;;;;;;;;;
2019/06/23 16:39:40;;;;;;;5.4;4.3;;;;;;;;;;;;;
2019/06/23 16:42:05;;;;;;;5.2;4.7;;;;;;;;;;;;;
2019/06/23 16:44:30;;;;;;;4.8;4.4;;;;;;;;;;;;;
2019/06/23 16:46:55;;;;;;;5.2;4.7;;;;;;;;;;;;;
2019/06/23 16:49:20;;;;;;;6.4;4.9;;;;;;;;;;;;;
2019/06/23 16:51:52;;;;;;;4.8;4.4;;;;;;;;;;;;;
2019/06/23 16:54:23;;;;;;;5.3;4.8;;;;;;;;;;;;;
2019/06/23 16:56:49;;;;;;;4.6;4.2;;;;;;;;;;;;;
2019/06/23 16:59:14;;;;;;;5;4.6;;;;;;;;;;;;;
2019/06/23 17:01:39;;;;;;;4.8;4.4;;;;;;;;;;;;;
2019/06/23 17:04:04;;;;;;;5.1;4.6;;;;;;;;;;;;;
2019/06/23 17:06:29;;;;;;;6.1;4.8;;;;;;;;;;;;;
2019/06/23 17:08:54;;;;;;;5.2;4.7;;;;;;;;;;;;;
2019/06/23 17:11:19;;;;;;;5.3;4.8;;;;;;;;;;;;;
2019/06/23 17:13:44;;;;;;;5.1;4.6;;;;;;;;;;;;;
2019/06/23 17:16:09;;;;;;;5.2;4.7;;;;;;;;;;;;;
2019/06/23 17:18:35;;;;;;;6.4;5.3;;;;;;;;;;;;;
2019/06/23 17:21:00;;;;;;;5.2;4.5;;;;;;;;;;;;;
2019/06/23 17:23:25;;;;;;;5;4.6;;;;;;;;;;;;;
2019/06/23 17:25:53;;;;;;;4.8;4.4;;;;;;;;;;;;;
2019/06/23 17:28:22;;;;;;;5.6;5.1;;;;;;;;;;;;;
2019/06/23 17:30:47;;;;;;;5.8;4.9;;;;;;;;;;;;;
2019/06/23 17:33:19;;;;;;;5.4;4.9;;;;;;;;;;;;;
2019/06/23 17:35:44;;;;;;;5.5;5;;;;;;;;;;;;;
2019/06/23 17:38:09;;;;;;;5.2;4.7;;;;;;;;;;;;;
2019/06/23 17:40:36;;;;;;;5.7;5.2;;;;;;;;;;;;;
2019/06/23 17:43:01;;;;;;;5.6;4.9;;;;;;;;;;;;;
2019/06/23 17:45:29;;;;;;;5.2;4.8;;;;;;;;;;;;;
2019/06/23 17:47:54;;;;;;;5.3;4.8;;;;;;;;;;;;;
2019/06/23 17:50:20;;;;;;;5.4;4.9;;;;;;;;;;;;;
2019/06/23 17:52:45;;;;;;;5.3;4.9;;;;;;;;;;;;;
2019/06/23 17:55:10;;;;;;;5.4;4.9;;;;;;;;;;;;;
2019/06/23 17:57:35;;;;;;;6.6;4.7;;;;;;;;;;;;;
2019/06/23 18:00:00;;;;;;;5.5;5;;;;;;;;;;;;;
2019/06/23 18:02:25;;;;;;;5.7;5.2;;;;;;;;;;;;;
2019/06/23 18:04:50;;;;;;;5.7;4.9;;;;;;;;;;;;;
2019/06/23 18:07:15;;;;;;;5.8;5.3;;;;;;;;;;;;;
2019/06/23 18:09:40;;;;;;;5.9;5.2;;;;;;;;;;;;;
2019/06/23 18:12:06;;;;;;;5.6;5.1;;;;;;;;;;;;;
2019/06/23 18:14:31;;;;;;;5.3;4.9;;;;;;;;;;;;;
2019/06/23 18:17:03;;;;;;;6.2;4.4;;;;;;;;;;;;;
2019/06/23 18:19:33;;;;;;;5.2;4.8;;;;;;;;;;;;;
2019/06/23 18:22:01;;;;;;;5.9;5;;;;;;;;;;;;;
2019/06/23 18:24:26;;;;;;;5.7;5.1;;;;;;;;;;;;;
2019/06/23 18:26:52;;;;;;;8.5;4.9;;;;;;;;;;;;;
2019/06/23 18:29:17;;;;;;;5.7;5.2;;;;;;;;;;;;;
2019/06/23 18:31:42;;;;;;;5.6;5.1;;;;;;;;;;;;;
2019/06/23 18:34:07;;;;;;;5.5;5;;;;;;;;;;;;;
2019/06/23 18:36:32;;;;;;;5.6;5.1;;;;;;;;;;;;;
2019/06/23 18:38:58;;;;;;;5.7;5.2;;;;;;;;;;;;;
2019/06/23 18:41:23;;;;;;;5.8;5.3;;;;;;;;;;;;;
2019/06/23 18:43:48;;;;;;;6.2;5.6;;;;;;;;;;;;;
2019/06/23 18:46:13;;;;;;;5.9;5.2;;;;;;;;;;;;;
2019/06/23 18:48:38;;;;;;;5.5;5;;;;;;;;;;;;;
2019/06/23 18:51:03;;;;;;;6;5.2;;;;;;;;;;;;;
2019/06/23 18:53:28;;;;;;;6.2;5.5;;;;;;;;;;;;;
2019/06/23 18:55:53;;;;;;;5.7;5.2;;;;;;;;;;;;;
2019/06/23 18:58:18;;;;;;;6.5;5.3;;;;;;;;;;;;;
2019/06/23 19:00:43;;;;;;;5.9;5.4;;;;;;;;;;;;;
2019/06/23 19:03:08;;;;;;;6.3;5.7;;;;;;;;;;;;;
2019/06/23 19:05:33;;;;;;;6.1;5.5;;;;;;;;;;;;;
2019/06/23 19:07:59;;;;;;;5.9;5.3;;;;;;;;;;;;;
2019/06/23 19:10:26;;;;;;;5.9;5.3;;;;;;;;;;;;;
2019/06/23 19:12:51;;;;;;;6.1;5.5;;;;;;;;;;;;;
2019/06/23 19:15:16;;;;;;;6.1;5.5;;;;;;;;;;;;;
2019/06/23 19:17:41;;;;;;;6.2;5.6;;;;;;;;;;;;;
2019/06/23 19:20:06;;;;;;;6.4;5.7;;;;;;;;;;;;;
2019/06/23 19:22:32;;;;;;;7.3;5.8;;;;;;;;;;;;;
2019/06/23 19:24:57;;;;;;;6.5;6;;;;;;;;;;;;;
2019/06/23 19:27:22;;;;;;;6.6;6;;;;;;;;;;;;;
2019/06/23 19:29:48;;;;;;;6.1;5.6;;;;;;;;;;;;;
2019/06/23 19:32:13;;;;;;;6.4;5.8;;;;;;;;;;;;;